createdAt,value
2019-01-29T00:02:19.156Z,96.89
2019-01-29T00:04:47.475Z,97.03
2019-01-29T00:07:15.921Z,97.09
2019-01-29T00:09:44.330Z,97.22
2019-01-29T00:12:12.666Z,97.31
2019-01-29T00:14:40.959Z,97.26
2019-01-29T00:17:09.300Z,97.34
2019-01-29T00:19:37.636Z,97.44
2019-01-29T00:22:06.075Z,97.52
2019-01-29T00:24:34.344Z,97.58
2019-01-29T00:27:02.697Z,97.30
2019-01-29T00:29:31.000Z,97.30
2019-01-29T00:31:59.274Z,97.87
2019-01-29T00:34:27.649Z,98.00
2019-01-29T00:36:55.965Z,98.10
2019-01-29T00:39:24.334Z,98.14
2019-01-29T00:41:52.819Z,98.25
2019-01-29T00:44:21.269Z,98.32
2019-01-29T00:46:49.609Z,98.36
2019-01-29T00:49:17.992Z,98.40
2019-01-29T00:51:46.327Z,98.43
2019-01-29T00:54:14.628Z,98.43
2019-01-29T00:56:42.971Z,98.42
2019-01-29T00:59:11.330Z,98.42
2019-01-29T01:01:39.686Z,98.38
2019-01-29T01:04:08.077Z,98.32
2019-01-29T01:06:36.416Z,98.20
2019-01-29T01:09:07.559Z,98.09
2019-01-29T01:11:36.012Z,97.91
2019-01-29T01:14:04.590Z,97.87
2019-01-29T01:16:32.903Z,97.79
2019-01-29T01:19:01.263Z,97.71
2019-01-29T01:21:29.682Z,97.64
2019-01-29T01:23:58.102Z,97.62
2019-01-29T01:26:26.412Z,97.53
2019-01-29T01:28:54.743Z,97.54
2019-01-29T01:31:23.121Z,97.68
2019-01-29T01:33:51.463Z,97.63
2019-01-29T01:36:19.971Z,97.56
2019-01-29T01:38:48.323Z,97.43
2019-01-29T01:41:16.703Z,97.29
2019-01-29T01:43:45.093Z,97.21
2019-01-29T01:46:13.523Z,97.24
2019-01-29T01:48:41.829Z,97.12
2019-01-29T01:51:10.108Z,97.00
2019-01-29T01:53:38.612Z,96.89
2019-01-29T01:56:06.901Z,96.82
2019-01-29T01:58:35.311Z,96.62
2019-01-29T02:01:03.648Z,96.55
2019-01-29T02:03:32.000Z,96.53
2019-01-29T02:06:00.512Z,96.50
2019-01-29T02:08:28.967Z,96.52
2019-01-29T02:10:57.234Z,96.45
2019-01-29T02:13:25.533Z,96.28
2019-01-29T02:15:53.913Z,96.30
2019-01-29T02:18:22.287Z,96.32
2019-01-29T02:20:50.599Z,96.33
2019-01-29T02:23:19.141Z,96.12
2019-01-29T02:25:47.447Z,96.02
2019-01-29T02:28:15.734Z,96.11
2019-01-29T02:30:44.239Z,96.10
2019-01-29T02:33:12.692Z,96.13
2019-01-29T02:35:41.070Z,96.07
2019-01-29T02:38:09.372Z,96.08
2019-01-29T02:40:37.735Z,96.01
2019-01-29T02:43:06.099Z,96.09
2019-01-29T02:45:34.438Z,96.12
2019-01-29T02:48:02.766Z,96.15
2019-01-29T02:50:31.110Z,96.17
2019-01-29T02:52:59.373Z,96.24
2019-01-29T02:55:27.779Z,96.16
2019-01-29T02:57:56.186Z,96.24
2019-01-29T03:00:27.159Z,96.33
2019-01-29T03:02:55.624Z,96.44
2019-01-29T03:05:23.890Z,96.56
2019-01-29T03:07:52.313Z,96.73
2019-01-29T03:10:26.418Z,96.78
2019-01-29T03:12:54.724Z,96.89
2019-01-29T03:15:31.416Z,96.88
2019-01-29T03:17:59.772Z,96.98
2019-01-29T03:20:28.171Z,97.05
2019-01-29T03:22:56.545Z,97.09
2019-01-29T03:25:24.890Z,97.26
2019-01-29T03:27:53.397Z,97.28
2019-01-29T03:30:23.062Z,97.23
2019-01-29T03:32:51.525Z,97.23
2019-01-29T03:35:19.906Z,97.29
2019-01-29T03:37:48.324Z,97.16
2019-01-29T03:40:19.410Z,97.20
2019-01-29T03:42:47.773Z,97.09
2019-01-29T03:45:16.982Z,97.08
2019-01-29T03:47:45.388Z,97.09
2019-01-29T03:50:16.285Z,97.11
2019-01-29T03:52:44.622Z,97.10
2019-01-29T03:55:12.923Z,97.13
2019-01-29T03:57:41.358Z,97.12
2019-01-29T04:00:13.088Z,97.09
2019-01-29T04:02:41.782Z,97.07
2019-01-29T04:05:10.041Z,96.95
2019-01-29T04:07:38.400Z,96.84
2019-01-29T04:10:10.213Z,96.81
2019-01-29T04:12:38.573Z,96.71
2019-01-29T04:15:10.349Z,96.65
2019-01-29T04:17:38.682Z,96.52
2019-01-29T04:20:10.568Z,96.32
2019-01-29T04:22:38.939Z,96.16
2019-01-29T04:25:09.313Z,96.16
2019-01-29T04:27:37.616Z,96.11
2019-01-29T04:30:11.924Z,96.19
2019-01-29T04:32:40.204Z,96.18
2019-01-29T04:35:08.458Z,96.29
2019-01-29T04:37:36.853Z,96.37
2019-01-29T04:40:08.517Z,96.43
2019-01-29T04:42:36.905Z,96.51
2019-01-29T04:45:08.527Z,96.49
2019-01-29T04:47:36.795Z,96.51
2019-01-29T04:50:07.304Z,96.44
2019-01-29T04:52:35.629Z,96.46
2019-01-29T04:55:07.256Z,96.42
2019-01-29T04:57:35.599Z,96.40
2019-01-29T05:00:08.059Z,96.47
2019-01-29T05:02:36.406Z,96.36
2019-01-29T05:05:08.054Z,96.29
2019-01-29T05:07:36.360Z,96.17
2019-01-29T05:10:10.684Z,96.12
2019-01-29T05:12:40.076Z,95.91
2019-01-29T05:15:11.774Z,95.58
2019-01-29T05:17:40.173Z,95.47
2019-01-29T05:20:14.349Z,95.47
2019-01-29T05:22:42.994Z,95.39
2019-01-29T05:25:12.409Z,95.18
2019-01-29T05:27:40.816Z,94.88
2019-01-29T05:30:20.607Z,94.65
2019-01-29T05:32:48.002Z,94.54
2019-01-29T05:35:16.405Z,94.51
2019-01-29T05:37:44.818Z,94.57
2019-01-29T05:40:19.253Z,94.73
2019-01-29T05:42:47.633Z,94.90
2019-01-29T05:45:19.229Z,95.02
2019-01-29T05:47:47.641Z,95.08
2019-01-29T05:50:16.218Z,95.01
2019-01-29T05:52:44.717Z,94.86
2019-01-29T05:55:34.273Z,95.27
2019-01-29T05:58:17.467Z,95.33
2019-01-29T06:00:47.122Z,95.49
2019-01-29T06:03:15.489Z,95.68
2019-01-29T06:05:43.761Z,95.88
2019-01-29T06:08:12.176Z,95.90
2019-01-29T06:10:40.589Z,95.83
2019-01-29T06:13:08.861Z,95.75
2019-01-29T06:15:37.263Z,95.65
2019-01-29T06:18:05.691Z,95.68
2019-01-29T06:20:34.054Z,95.82
2019-01-29T06:23:02.364Z,95.82
2019-01-29T06:25:30.651Z,95.87
2019-01-29T06:27:59.050Z,95.89
2019-01-29T06:30:27.439Z,95.90
2019-01-29T06:32:55.815Z,96.01
2019-01-29T06:35:24.302Z,96.09
2019-01-29T06:37:52.612Z,96.10
2019-01-29T06:40:23.632Z,96.29
2019-01-29T06:42:51.962Z,96.29
2019-01-29T06:45:22.837Z,96.26
2019-01-29T06:47:51.142Z,96.38
2019-01-29T06:50:21.675Z,96.54
2019-01-29T06:52:49.963Z,96.43
2019-01-29T06:55:20.659Z,96.47
2019-01-29T06:57:55.099Z,96.31
2019-01-29T07:00:21.946Z,96.43
2019-01-29T07:02:50.278Z,96.43
2019-01-29T07:05:18.654Z,96.14
2019-01-29T07:07:46.918Z,96.10
2019-01-29T07:10:17.733Z,95.99
2019-01-29T07:12:46.030Z,95.86
2019-01-29T07:15:38.284Z,95.82
2019-01-29T07:18:08.205Z,95.92
2019-01-29T07:20:36.498Z,95.93
2019-01-29T07:23:04.902Z,96.01
2019-01-29T07:25:33.454Z,96.10
2019-01-29T07:28:01.731Z,96.27
2019-01-29T07:30:30.032Z,96.37
2019-01-29T07:32:58.335Z,96.44
2019-01-29T07:35:26.609Z,96.43
2019-01-29T07:37:54.985Z,96.29
2019-01-29T07:40:23.343Z,96.15
2019-01-29T07:42:51.711Z,96.15
2019-01-29T07:45:20.043Z,95.97
2019-01-29T07:47:48.326Z,95.82
2019-01-29T07:50:16.721Z,95.81
2019-01-29T07:52:45.053Z,95.84
2019-01-29T07:55:13.432Z,95.79
2019-01-29T07:57:41.738Z,95.81
2019-01-29T08:00:15.915Z,95.65
2019-01-29T08:02:44.254Z,95.62
2019-01-29T08:05:13.633Z,95.65
2019-01-29T08:07:41.965Z,95.22
2019-01-29T08:10:13.521Z,95.22
2019-01-29T08:12:41.817Z,95.20
2019-01-29T08:15:13.487Z,94.89
2019-01-29T08:17:41.775Z,94.70
2019-01-29T08:20:12.179Z,94.74
2019-01-29T08:22:40.628Z,95.08
2019-01-29T08:25:12.077Z,95.34
2019-01-29T08:27:40.446Z,95.29
2019-01-29T08:30:17.381Z,94.76
2019-01-29T08:32:45.738Z,94.40
2019-01-29T08:35:17.270Z,93.99
2019-01-29T08:37:45.665Z,93.04
2019-01-29T08:40:17.572Z,92.87
2019-01-29T08:42:45.833Z,92.26
2019-01-29T08:45:17.239Z,91.65
2019-01-29T08:47:45.741Z,91.63
2019-01-29T08:50:17.431Z,91.19
2019-01-29T08:52:45.873Z,90.71
2019-01-29T08:55:14.367Z,91.21
2019-01-29T08:57:42.703Z,90.84
2019-01-29T09:00:14.545Z,90.88
2019-01-29T09:02:42.919Z,90.32
2019-01-29T09:05:11.311Z,90.46
2019-01-29T09:07:39.731Z,90.01
2019-01-29T09:10:14.242Z,89.56
2019-01-29T09:12:42.520Z,89.58
2019-01-29T09:15:14.413Z,88.83
2019-01-29T09:17:42.790Z,87.61
2019-01-29T09:20:14.411Z,86.93
2019-01-29T09:22:43.013Z,87.35
2019-01-29T09:25:20.930Z,86.65
2019-01-29T09:27:44.484Z,87.56
2019-01-29T09:30:18.034Z,87.51
2019-01-29T09:32:46.442Z,88.13
2019-01-29T09:35:14.779Z,87.54
2019-01-29T09:37:43.132Z,86.89
2019-01-29T09:40:23.765Z,86.51
2019-01-29T09:42:52.027Z,85.68
2019-01-29T09:45:21.444Z,85.36
2019-01-29T09:47:49.708Z,85.83
2019-01-29T09:50:21.035Z,85.41
2019-01-29T09:52:49.437Z,86.34
2019-01-29T09:55:29.050Z,84.73
2019-01-29T09:57:50.901Z,85.21
2019-01-29T10:00:25.004Z,85.46
2019-01-29T10:02:53.416Z,83.87
2019-01-29T10:05:21.807Z,83.67
2019-01-29T10:07:50.151Z,84.01
2019-01-29T10:10:18.595Z,82.91
2019-01-29T10:12:46.863Z,85.20
2019-01-29T10:15:33.626Z,84.24
2019-01-29T10:18:02.047Z,84.00
2019-01-29T10:20:31.036Z,84.42
2019-01-29T10:22:59.414Z,83.55
2019-01-29T10:25:27.798Z,84.54
2019-01-29T10:27:56.141Z,83.54
2019-01-29T10:30:27.078Z,83.52
2019-01-29T10:32:55.588Z,83.80
2019-01-29T10:35:26.223Z,83.26
2019-01-29T10:37:54.509Z,82.49
2019-01-29T10:40:26.202Z,82.74
2019-01-29T10:42:54.813Z,82.60
2019-01-29T10:45:24.408Z,80.71
2019-01-29T10:47:52.906Z,84.07
2019-01-29T10:50:28.198Z,82.76
2019-01-29T10:52:57.860Z,81.81
2019-01-29T10:55:26.194Z,82.00
2019-01-29T10:57:54.576Z,80.81
2019-01-29T11:00:26.450Z,81.08
2019-01-29T11:02:54.694Z,82.13
2019-01-29T11:05:23.846Z,80.89
2019-01-29T11:07:52.207Z,80.89
2019-01-29T11:10:21.316Z,82.30
2019-01-29T11:12:49.798Z,82.12
2019-01-29T11:15:32.009Z,81.86
2019-01-29T11:18:00.541Z,81.40
2019-01-29T11:20:28.946Z,80.92
2019-01-29T11:22:57.430Z,81.50
2019-01-29T11:25:28.466Z,82.23
2019-01-29T11:27:56.748Z,82.15
2019-01-29T11:30:27.751Z,81.82
2019-01-29T11:32:56.256Z,80.61
2019-01-29T11:35:24.608Z,82.26
2019-01-29T11:37:52.991Z,82.74
2019-01-29T11:40:26.501Z,81.36
2019-01-29T11:42:54.928Z,82.15
2019-01-29T11:45:31.356Z,78.83
2019-01-29T11:47:59.774Z,81.82
2019-01-29T11:50:28.206Z,79.15
2019-01-29T11:52:56.483Z,79.45
2019-01-29T11:55:24.833Z,79.87
2019-01-29T11:57:53.233Z,79.68
2019-01-29T12:00:26.319Z,78.28
2019-01-29T12:02:54.654Z,79.26
2019-01-29T12:05:23.054Z,77.88
2019-01-29T12:08:28.171Z,78.76
2019-01-29T12:10:56.458Z,79.70
2019-01-29T12:13:24.733Z,78.52
2019-01-29T12:15:53.105Z,79.77
2019-01-29T12:18:21.537Z,77.99
2019-01-29T12:20:49.799Z,78.69
2019-01-29T12:23:18.790Z,78.38
2019-01-29T12:25:47.142Z,78.33
2019-01-29T12:28:15.524Z,79.20
2019-01-29T12:30:43.846Z,78.39
2019-01-29T12:33:12.230Z,79.89
2019-01-29T12:35:40.532Z,76.89
2019-01-29T12:38:08.902Z,78.10
2019-01-29T12:40:37.959Z,78.24
2019-01-29T12:43:06.261Z,78.91
2019-01-29T12:45:34.725Z,79.44
2019-01-29T12:48:03.083Z,77.53
2019-01-29T12:50:33.048Z,78.95
2019-01-29T12:53:03.876Z,79.24
2019-01-29T12:55:37.990Z,76.35
2019-01-29T12:58:06.809Z,76.46
2019-01-29T13:00:36.718Z,75.79
2019-01-29T13:03:05.465Z,76.14
2019-01-29T13:05:33.954Z,77.65
2019-01-29T13:08:02.235Z,75.75
2019-01-29T13:10:30.603Z,77.24
2019-01-29T13:13:03.958Z,77.27
2019-01-29T13:15:34.337Z,75.28
2019-01-29T13:18:07.891Z,74.70
2019-01-29T13:20:40.137Z,76.58
2019-01-29T13:23:11.031Z,72.30
2019-01-29T13:25:40.435Z,74.73
2019-01-29T13:28:11.278Z,72.86
2019-01-29T13:30:40.064Z,72.59
2019-01-29T13:33:14.487Z,72.48
2019-01-29T13:35:42.884Z,72.10
2019-01-29T13:38:11.360Z,69.57
2019-01-29T13:40:39.687Z,70.60
2019-01-29T13:43:08.305Z,68.26
2019-01-29T13:45:36.687Z,70.46
2019-01-29T13:48:05.748Z,70.79
2019-01-29T13:50:37.380Z,70.71
2019-01-29T13:53:06.740Z,69.13
2019-01-29T13:55:35.261Z,69.89
2019-01-29T13:58:03.657Z,67.56
2019-01-29T14:00:34.646Z,70.01
2019-01-29T14:03:03.128Z,70.01
2019-01-29T14:05:31.437Z,67.43
2019-01-29T14:07:59.803Z,66.52
2019-01-29T14:10:28.139Z,67.75
2019-01-29T14:12:56.515Z,67.60
2019-01-29T14:15:27.839Z,68.85
2019-01-29T14:17:56.106Z,69.04
2019-01-29T14:20:24.470Z,68.99
2019-01-29T14:22:52.786Z,68.59
2019-01-29T14:25:21.195Z,70.15
2019-01-29T14:27:49.481Z,70.49
2019-01-29T14:30:26.623Z,67.88
2019-01-29T14:32:55.031Z,67.55
2019-01-29T14:35:23.469Z,69.32
2019-01-29T14:38:06.877Z,67.65
2019-01-29T14:40:35.361Z,68.54
2019-01-29T14:43:07.536Z,70.09
2019-01-29T14:45:35.966Z,69.03
2019-01-29T14:48:05.008Z,69.79
2019-01-29T14:50:33.370Z,70.06
2019-01-29T14:53:01.780Z,67.33
2019-01-29T14:55:30.122Z,68.72
2019-01-29T14:57:58.518Z,68.41
2019-01-29T15:00:37.561Z,67.54
2019-01-29T15:03:06.717Z,67.52
2019-01-29T15:05:35.259Z,68.50
2019-01-29T15:08:04.026Z,67.81
2019-01-29T15:10:33.795Z,67.67
2019-01-29T15:13:02.148Z,68.36
2019-01-29T15:15:37.877Z,68.68
2019-01-29T15:18:25.680Z,67.46
2019-01-29T15:20:54.197Z,68.91
2019-01-29T15:23:23.002Z,69.34
2019-01-29T15:25:51.537Z,69.03
2019-01-29T15:28:19.949Z,69.63
2019-01-29T15:31:01.496Z,70.74
2019-01-29T15:33:31.158Z,70.70
2019-01-29T15:35:59.458Z,71.33
2019-01-29T15:38:28.129Z,71.31
2019-01-29T15:40:56.659Z,71.75
2019-01-29T15:43:26.235Z,72.41
2019-01-29T15:45:54.730Z,72.23
2019-01-29T15:48:23.409Z,72.85
2019-01-29T15:50:52.143Z,73.19
2019-01-29T15:53:20.554Z,73.54
2019-01-29T15:55:49.626Z,73.52
2019-01-29T15:58:18.200Z,73.24
2019-01-29T16:00:46.793Z,74.04
2019-01-29T16:03:15.235Z,74.45
2019-01-29T16:05:43.619Z,75.24
2019-01-29T16:08:13.815Z,75.33
2019-01-29T16:10:44.730Z,75.42
2019-01-29T16:13:13.650Z,76.35
2019-01-29T16:15:43.479Z,76.95
2019-01-29T16:18:13.511Z,77.44
2019-01-29T16:20:42.180Z,77.38
2019-01-29T16:23:10.752Z,77.23
2019-01-29T16:25:39.525Z,77.29
2019-01-29T16:28:08.221Z,77.51
2019-01-29T16:30:38.847Z,78.64
2019-01-29T16:33:13.559Z,79.73
2019-01-29T16:35:44.465Z,79.88
2019-01-29T16:38:13.928Z,80.07
2019-01-29T16:40:46.942Z,79.78
2019-01-29T16:43:15.768Z,80.53
2019-01-29T16:45:44.894Z,80.24
2019-01-29T16:48:25.752Z,79.78
2019-01-29T16:50:55.538Z,81.21
2019-01-29T16:53:24.571Z,81.44
2019-01-29T16:55:53.497Z,81.74
2019-01-29T16:58:23.218Z,81.70
2019-01-29T17:00:52.661Z,81.63
2019-01-29T17:03:21.645Z,81.46
2019-01-29T17:05:50.582Z,81.58
2019-01-29T17:08:19.577Z,81.75
2019-01-29T17:10:48.178Z,81.86
2019-01-29T17:13:17.124Z,82.31
2019-01-29T17:15:45.607Z,83.18
2019-01-29T17:18:14.042Z,82.77
2019-01-29T17:20:49.628Z,83.04
2019-01-29T17:23:19.498Z,83.13
2019-01-29T17:25:47.972Z,83.16
2019-01-29T17:28:16.388Z,83.22
2019-01-29T17:30:46.122Z,83.34
2019-01-29T17:33:21.380Z,83.69
2019-01-29T17:35:49.842Z,83.84
2019-01-29T17:38:18.324Z,84.37
2019-01-29T17:40:47.230Z,84.68
2019-01-29T17:43:16.000Z,84.60
2019-01-29T17:45:50.495Z,85.65
2019-01-29T17:48:19.534Z,85.44
2019-01-29T17:50:48.049Z,85.46
2019-01-29T17:53:17.192Z,85.39
2019-01-29T17:55:46.215Z,85.15
2019-01-29T17:58:16.262Z,85.13
2019-01-29T18:00:46.379Z,85.34
2019-01-29T18:03:14.757Z,85.71
2019-01-29T18:05:43.329Z,86.06
2019-01-29T18:08:11.664Z,85.98
2019-01-29T18:10:45.710Z,85.77
2019-01-29T18:13:14.752Z,85.71
2019-01-29T18:15:43.483Z,86.40
2019-01-29T18:18:15.497Z,86.74
2019-01-29T18:20:44.191Z,86.52
2019-01-29T18:23:12.658Z,86.62
2019-01-29T18:25:41.124Z,87.01
2019-01-29T18:28:09.610Z,86.94
2019-01-29T18:30:38.053Z,86.09
2019-01-29T18:33:06.462Z,86.09
2019-01-29T18:35:34.913Z,85.96
2019-01-29T18:38:03.283Z,86.20
2019-01-29T18:40:43.603Z,86.42
2019-01-29T18:43:12.006Z,85.74
2019-01-29T18:45:40.375Z,86.09
2019-01-29T18:48:08.714Z,85.65
2019-01-29T18:50:37.099Z,86.44
2019-01-29T18:53:05.583Z,86.12
2019-01-29T18:55:33.985Z,85.91
2019-01-29T18:58:11.458Z,85.53
2019-01-29T19:00:32.505Z,85.25
2019-01-29T19:03:01.099Z,85.54
2019-01-29T19:05:36.664Z,85.76
2019-01-29T19:08:05.265Z,85.32
2019-01-29T19:10:34.447Z,84.49
2019-01-29T19:13:02.825Z,84.11
2019-01-29T19:15:31.258Z,83.29
2019-01-29T19:18:00.862Z,82.92
2019-01-29T19:20:29.502Z,82.22
2019-01-29T19:22:58.635Z,82.46
2019-01-29T19:25:26.980Z,82.46
2019-01-29T19:27:55.436Z,82.67
2019-01-29T19:30:32.703Z,82.66
2019-01-29T19:33:01.518Z,82.84
2019-01-29T19:35:30.036Z,82.92
2019-01-29T19:38:02.751Z,83.62
2019-01-29T19:40:32.296Z,83.80
2019-01-29T19:43:01.417Z,83.98
2019-01-29T19:45:34.760Z,84.04
2019-01-29T19:48:06.479Z,84.53
2019-01-29T19:50:35.828Z,84.51
2019-01-29T19:53:05.555Z,84.57
2019-01-29T19:55:34.905Z,84.63
2019-01-29T19:58:09.185Z,84.78
2019-01-29T20:00:41.775Z,83.75
2019-01-29T20:03:12.494Z,83.39
2019-01-29T20:05:40.963Z,83.06
2019-01-29T20:08:10.289Z,82.78
2019-01-29T20:10:38.845Z,82.71
2019-01-29T20:13:07.394Z,81.89
2019-01-29T20:15:35.893Z,82.04
2019-01-29T20:18:09.826Z,81.10
2019-01-29T20:20:41.789Z,81.61
2019-01-29T20:23:11.357Z,81.98
2019-01-29T20:25:40.666Z,82.36
2019-01-29T20:28:09.772Z,83.07
2019-01-29T20:30:43.999Z,82.72
2019-01-29T20:33:23.301Z,82.24
2019-01-29T20:36:06.358Z,82.51
2019-01-29T20:38:47.842Z,82.36
2019-01-29T20:41:22.157Z,82.48
2019-01-29T20:43:50.720Z,82.52
2019-01-29T20:46:19.061Z,82.75
2019-01-29T20:48:47.478Z,83.07
2019-01-29T20:51:15.969Z,83.32
2019-01-29T20:53:44.512Z,82.86
2019-01-29T20:56:12.996Z,83.00
2019-01-29T20:58:41.424Z,83.60
2019-01-29T21:01:09.803Z,83.19
2019-01-29T21:03:38.124Z,83.27
2019-01-29T21:06:06.662Z,83.43
2019-01-29T21:08:35.011Z,83.64
2019-01-29T21:11:03.356Z,83.55
2019-01-29T21:13:34.656Z,83.75
2019-01-29T21:16:03.712Z,83.41
2019-01-29T21:18:32.235Z,82.79
2019-01-29T21:21:00.882Z,81.89
2019-01-29T21:23:29.686Z,80.73
2019-01-29T21:25:58.117Z,79.95
2019-01-29T21:28:26.846Z,79.09
2019-01-29T21:30:55.176Z,79.10
2019-01-29T21:33:23.626Z,79.81
2019-01-29T21:35:52.579Z,80.30
2019-01-29T21:38:21.752Z,80.71
2019-01-29T21:40:50.083Z,80.87
2019-01-29T21:43:19.420Z,80.86
2019-01-29T21:45:48.528Z,80.77
2019-01-29T21:48:16.964Z,80.68
2019-01-29T21:50:45.368Z,81.30
2019-01-29T21:53:13.736Z,82.33
2019-01-29T21:55:42.671Z,82.62
2019-01-29T21:58:10.958Z,82.85
2019-01-29T22:00:42.381Z,82.61
2019-01-29T22:03:10.907Z,82.10
2019-01-29T22:05:39.275Z,82.18
2019-01-29T22:08:07.991Z,82.01
2019-01-29T22:10:36.323Z,81.79
2019-01-29T22:13:07.369Z,82.09
2019-01-29T22:15:35.660Z,82.78
2019-01-29T22:18:05.293Z,82.95
2019-01-29T22:20:33.590Z,82.54
2019-01-29T22:23:01.892Z,82.20
2019-01-29T22:25:30.252Z,81.76
2019-01-29T22:27:58.585Z,81.98
2019-01-29T22:30:32.800Z,81.99
2019-01-29T22:33:01.182Z,82.21
2019-01-29T22:35:29.519Z,81.82
2019-01-29T22:37:57.809Z,82.09
2019-01-29T22:40:30.818Z,82.15
2019-01-29T22:43:01.218Z,82.33
2019-01-29T22:45:29.605Z,82.56
2019-01-29T22:47:57.964Z,83.08
2019-01-29T22:50:32.572Z,83.19
2019-01-29T22:53:00.951Z,83.47
2019-01-29T22:55:30.050Z,84.18
2019-01-29T22:57:58.426Z,84.34
2019-01-29T23:00:52.225Z,84.29
2019-01-29T23:03:23.247Z,84.18
2019-01-29T23:05:57.651Z,84.26
2019-01-29T23:08:26.028Z,84.37
2019-01-29T23:10:54.417Z,84.66
2019-01-29T23:13:22.959Z,84.63
2019-01-29T23:15:51.316Z,84.31
2019-01-29T23:18:19.653Z,84.42
2019-01-29T23:20:47.974Z,84.64
2019-01-29T23:23:16.313Z,84.86
2019-01-29T23:25:44.727Z,84.58
2019-01-29T23:28:13.033Z,85.09
2019-01-29T23:30:41.521Z,85.03
2019-01-29T23:33:09.929Z,85.34
2019-01-29T23:35:38.318Z,85.70
2019-01-29T23:38:06.730Z,86.42
2019-01-29T23:40:35.116Z,85.72
2019-01-29T23:43:03.423Z,85.63
2019-01-29T23:45:31.773Z,85.93
2019-01-29T23:48:03.240Z,86.03
2019-01-29T23:50:32.976Z,85.84
2019-01-29T23:53:01.243Z,85.66
2019-01-29T23:55:29.638Z,85.61
2019-01-29T23:57:58.096Z,85.61
